sensor_id;sensor_type;location;lat;lon;timestamp;pressure;altitude;pressure_sealevel;temperature;humidity
48553;BME280;34335;51.566;6.994;2022-09-16T00:02:20;100457.81;;;12.10;95.30
48553;BME280;34335;51.566;6.994;2022-09-16T00:04:45;100461.31;;;12.11;95.12
48553;BME280;34335;51.566;6.994;2022-09-16T00:07:11;100458.78;;;12.03;95.85
48553;BME280;34335;51.566;6.994;2022-09-16T00:09:36;100456.03;;;12.17;93.38
48553;BME280;34335;51.566;6.994;2022-09-16T00:12:03;100449.06;;;12.18;94.24
48553;BME280;34335;51.566;6.994;2022-09-16T00:14:28;100454.31;;;12.14;93.40
48553;BME280;34335;51.566;6.994;2022-09-16T00:16:53;100459.44;;;12.22;93.80
48553;BME280;34335;51.566;6.994;2022-09-16T00:19:19;100455.19;;;12.13;94.74
48553;BME280;34335;51.566;6.994;2022-09-16T00:21:46;100446.53;;;12.11;94.76
48553;BME280;34335;51.566;6.994;2022-09-16T00:24:13;100453.53;;;12.08;95.61
48553;BME280;34335;51.566;6.994;2022-09-16T00:26:40;100453.38;;;12.19;93.20
48553;BME280;34335;51.566;6.994;2022-09-16T00:29:05;100451.72;;;12.14;94.52
48553;BME280;34335;51.566;6.994;2022-09-16T00:31:31;100459.47;;;12.18;93.69
48553;BME280;34335;51.566;6.994;2022-09-16T00:33:56;100456.94;;;12.14;94.74
48553;BME280;34335;51.566;6.994;2022-09-16T00:36:21;100455.16;;;12.18;94.76
48553;BME280;34335;51.566;6.994;2022-09-16T00:38:53;100450.84;;;12.15;92.99
48553;BME280;34335;51.566;6.994;2022-09-16T00:41:24;100451.63;;;12.21;93.60
48553;BME280;34335;51.566;6.994;2022-09-16T00:44:03;100449.91;;;12.21;93.96
48553;BME280;34335;51.566;6.994;2022-09-16T00:46:54;100454.28;;;12.19;94.17
48553;BME280;34335;51.566;6.994;2022-09-16T00:49:24;100453.44;;;12.14;95.35
48553;BME280;34335;51.566;6.994;2022-09-16T00:51:54;100456.09;;;12.09;95.71
48553;BME280;34335;51.566;6.994;2022-09-16T00:54:20;100451.81;;;12.05;95.90
48553;BME280;34335;51.566;6.994;2022-09-16T00:56:49;100457.00;;;12.07;96.08
48553;BME280;34335;51.566;6.994;2022-09-16T01:01:41;100451.78;;;12.07;96.43
48553;BME280;34335;51.566;6.994;2022-09-16T01:04:16;100452.63;;;12.10;93.94
48553;BME280;34335;51.566;6.994;2022-09-16T01:06:42;100459.63;;;12.04;95.68
48553;BME280;34335;51.566;6.994;2022-09-16T01:09:07;100467.47;;;12.02;93.91
48553;BME280;34335;51.566;6.994;2022-09-16T01:11:33;100461.53;;;11.88;97.78
48553;BME280;34335;51.566;6.994;2022-09-16T01:13:59;100458.88;;;11.91;97.13
48553;BME280;34335;51.566;6.994;2022-09-16T01:16:52;100458.97;;;11.81;98.58
48553;BME280;34335;51.566;6.994;2022-09-16T01:19:35;100461.53;;;11.86;98.37
48553;BME280;34335;51.566;6.994;2022-09-16T01:25:09;100458.00;;;11.92;97.73
48553;BME280;34335;51.566;6.994;2022-09-16T01:30:47;100462.38;;;11.88;98.15
48553;BME280;34335;51.566;6.994;2022-09-16T01:36:40;100466.75;;;11.86;98.18
48553;BME280;34335;51.566;6.994;2022-09-16T01:42:00;100455.41;;;11.90;97.78
48553;BME280;34335;51.566;6.994;2022-09-16T01:44:41;100451.94;;;11.91;97.87
48553;BME280;34335;51.566;6.994;2022-09-16T01:50:14;100453.72;;;11.88;99.05
48553;BME280;34335;51.566;6.994;2022-09-16T01:55:37;100458.00;;;11.92;97.76
48553;BME280;34335;51.566;6.994;2022-09-16T01:58:16;100455.38;;;11.93;98.32
48553;BME280;34335;51.566;6.994;2022-09-16T02:00:44;100451.06;;;11.92;98.72
48553;BME280;34335;51.566;6.994;2022-09-16T02:03:18;100461.50;;;11.92;98.69
48553;BME280;34335;51.566;6.994;2022-09-16T02:05:50;100457.97;;;11.95;98.25
48553;BME280;34335;51.566;6.994;2022-09-16T02:08:28;100458.91;;;11.89;98.55
48553;BME280;34335;51.566;6.994;2022-09-16T02:10:58;100460.59;;;11.95;97.46
48553;BME280;34335;51.566;6.994;2022-09-16T02:14:32;100452.75;;;11.95;97.98
48553;BME280;34335;51.566;6.994;2022-09-16T02:16:40;100451.94;;;11.91;97.83
48553;BME280;34335;51.566;6.994;2022-09-16T02:19:20;100447.56;;;11.92;97.96
48553;BME280;34335;51.566;6.994;2022-09-16T02:21:49;100445.91;;;11.84;98.67
48553;BME280;34335;51.566;6.994;2022-09-16T02:24:18;100451.06;;;11.91;98.23
48553;BME280;34335;51.566;6.994;2022-09-16T02:26:48;100445.03;;;11.87;98.08
48553;BME280;34335;51.566;6.994;2022-09-16T02:29:20;100451.94;;;11.91;97.53
48553;BME280;34335;51.566;6.994;2022-09-16T02:31:47;100443.28;;;11.88;97.61
48553;BME280;34335;51.566;6.994;2022-09-16T02:34:15;100442.50;;;11.81;98.44
48553;BME280;34335;51.566;6.994;2022-09-16T02:36:46;100445.91;;;11.88;96.54
48553;BME280;34335;51.566;6.994;2022-09-16T02:39:18;100445.81;;;11.94;96.39
48553;BME280;34335;51.566;6.994;2022-09-16T02:41:44;100444.16;;;11.88;97.53
48553;BME280;34335;51.566;6.994;2022-09-16T02:44:10;100440.75;;;11.78;98.48
48553;BME280;34335;51.566;6.994;2022-09-16T02:46:59;100432.13;;;11.76;98.88
48553;BME280;34335;51.566;6.994;2022-09-16T02:50:31;100425.13;;;11.78;97.70
48553;BME280;34335;51.566;6.994;2022-09-16T02:52:56;100426.03;;;11.76;97.58
48553;BME280;34335;51.566;6.994;2022-09-16T02:55:33;100427.81;;;11.69;98.38
48553;BME280;34335;51.566;6.994;2022-09-16T02:58:06;100430.38;;;11.75;97.55
48553;BME280;34335;51.566;6.994;2022-09-16T03:00:35;100429.56;;;11.68;98.51
48553;BME280;34335;51.566;6.994;2022-09-16T03:03:01;100425.28;;;11.66;98.56
48553;BME280;34335;51.566;6.994;2022-09-16T03:05:28;100423.44;;;11.74;97.46
48553;BME280;34335;51.566;6.994;2022-09-16T03:07:54;100432.22;;;11.64;98.88
48553;BME280;34335;51.566;6.994;2022-09-16T03:10:23;100427.03;;;11.64;99.13
48553;BME280;34335;51.566;6.994;2022-09-16T03:15:54;100426.94;;;11.72;98.02
48553;BME280;34335;51.566;6.994;2022-09-16T03:18:46;100420.91;;;11.68;98.74
48553;BME280;34335;51.566;6.994;2022-09-16T03:21:20;100423.50;;;11.69;99.04
48553;BME280;34335;51.566;6.994;2022-09-16T03:24:13;100427.81;;;11.69;97.78
48553;BME280;34335;51.566;6.994;2022-09-16T03:26:54;100419.97;;;11.72;98.02
48553;BME280;34335;51.566;6.994;2022-09-16T03:29:27;100423.50;;;11.69;98.57
48553;BME280;34335;51.566;6.994;2022-09-16T03:32:17;100427.81;;;11.69;99.51
48553;BME280;34335;51.566;6.994;2022-09-16T03:34:53;100427.84;;;11.67;99.09
48553;BME280;34335;51.566;6.994;2022-09-16T03:37:26;100420.94;;;11.62;99.48
48553;BME280;34335;51.566;6.994;2022-09-16T03:39:57;100428.75;;;11.65;99.34
48553;BME280;34335;51.566;6.994;2022-09-16T03:42:24;100437.47;;;11.62;98.89
48553;BME280;34335;51.566;6.994;2022-09-16T03:44:49;100426.16;;;11.62;98.80
48553;BME280;34335;51.566;6.994;2022-09-16T03:47:16;100422.72;;;11.61;99.23
48553;BME280;34335;51.566;6.994;2022-09-16T03:49:41;100423.59;;;11.59;99.47
48553;BME280;34335;51.566;6.994;2022-09-16T03:52:07;100420.97;;;11.63;99.84
48553;BME280;34335;51.566;6.994;2022-09-16T03:54:34;100415.84;;;11.54;99.76
48553;BME280;34335;51.566;6.994;2022-09-16T03:57:00;100417.59;;;11.52;99.50
48553;BME280;34335;51.566;6.994;2022-09-16T03:59:26;100414.94;;;11.55;99.74
48553;BME280;34335;51.566;6.994;2022-09-16T04:01:52;100418.41;;;11.56;99.38
48553;BME280;34335;51.566;6.994;2022-09-16T04:04:17;100421.09;;;11.45;100.00
48553;BME280;34335;51.566;6.994;2022-09-16T04:06:42;100425.34;;;11.57;97.97
48553;BME280;34335;51.566;6.994;2022-09-16T04:09:11;100422.72;;;11.61;98.32
48553;BME280;34335;51.566;6.994;2022-09-16T04:11:38;100422.72;;;11.61;98.25
48553;BME280;34335;51.566;6.994;2022-09-16T04:14:04;100415.78;;;11.60;98.69
48553;BME280;34335;51.566;6.994;2022-09-16T04:16:29;100413.28;;;11.48;99.37
48553;BME280;34335;51.566;6.994;2022-09-16T04:18:55;100417.59;;;11.50;100.00
48553;BME280;34335;51.566;6.994;2022-09-16T04:21:20;100410.66;;;11.49;98.87
48553;BME280;34335;51.566;6.994;2022-09-16T04:23:46;100407.25;;;11.44;99.82
48553;BME280;34335;51.566;6.994;2022-09-16T04:26:12;100408.19;;;11.37;100.00
48553;BME280;34335;51.566;6.994;2022-09-16T04:28:38;100405.59;;;11.34;100.00
48553;BME280;34335;51.566;6.994;2022-09-16T04:31:05;100408.22;;;11.31;100.00
48553;BME280;34335;51.566;6.994;2022-09-16T04:33:32;100413.44;;;11.32;100.00
48553;BME280;34335;51.566;6.994;2022-09-16T04:38:27;100407.34;;;11.33;100.00
48553;BME280;34335;51.566;6.994;2022-09-16T04:40:58;100420.28;;;11.43;99.49
48553;BME280;34335;51.566;6.994;2022-09-16T04:43:25;100413.25;;;11.49;99.64
48553;BME280;34335;51.566;6.994;2022-09-16T04:45:50;100408.03;;;11.51;98.54
48553;BME280;34335;51.566;6.994;2022-09-16T04:48:15;100411.50;;;11.51;98.44
48553;BME280;34335;51.566;6.994;2022-09-16T04:50:42;100405.53;;;11.42;99.98
48553;BME280;34335;51.566;6.994;2022-09-16T04:53:07;100413.38;;;11.35;100.00
48553;BME280;34335;51.566;6.994;2022-09-16T04:55:32;100412.59;;;11.29;100.00
48553;BME280;34335;51.566;6.994;2022-09-16T04:57:58;100416.03;;;11.29;100.00
48553;BME280;34335;51.566;6.994;2022-09-16T05:00:24;100419.50;;;11.34;99.33
48553;BME280;34335;51.566;6.994;2022-09-16T05:02:51;100413.47;;;11.28;99.81
48553;BME280;34335;51.566;6.994;2022-09-16T05:05:19;100413.47;;;11.28;100.00
48553;BME280;34335;51.566;6.994;2022-09-16T05:07:44;100414.25;;;11.36;99.15
48553;BME280;34335;51.566;6.994;2022-09-16T05:10:09;100416.88;;;11.33;99.06
48553;BME280;34335;51.566;6.994;2022-09-16T05:12:34;100415.13;;;11.35;98.31
48553;BME280;34335;51.566;6.994;2022-09-16T05:15:00;100409.91;;;11.38;98.47
48553;BME280;34335;51.566;6.994;2022-09-16T05:17:28;100410.84;;;11.29;99.23
48553;BME280;34335;51.566;6.994;2022-09-16T05:19:53;100413.44;;;11.29;99.24
48553;BME280;34335;51.566;6.994;2022-09-16T05:22:18;100410.00;;;11.26;99.55
48553;BME280;34335;51.566;6.994;2022-09-16T05:24:44;100410.91;;;11.23;99.58
48553;BME280;34335;51.566;6.994;2022-09-16T05:27:10;100408.22;;;11.31;98.93
48553;BME280;34335;51.566;6.994;2022-09-16T05:29:35;100417.03;;;11.14;100.00
48553;BME280;34335;51.566;6.994;2022-09-16T05:32:01;100419.66;;;11.13;100.00
48553;BME280;34335;51.566;6.994;2022-09-16T05:34:26;100423.09;;;11.16;100.00
48553;BME280;34335;51.566;6.994;2022-09-16T05:36:53;100413.50;;;11.21;99.86
48553;BME280;34335;51.566;6.994;2022-09-16T05:39:20;100419.63;;;11.17;100.00
48553;BME280;34335;51.566;6.994;2022-09-16T05:41:46;100422.22;;;11.17;100.00
48553;BME280;34335;51.566;6.994;2022-09-16T05:44:12;100416.94;;;11.30;100.00
48553;BME280;34335;51.566;6.994;2022-09-16T05:46:38;100415.28;;;11.19;99.58
48553;BME280;34335;51.566;6.994;2022-09-16T05:49:08;100411.69;;;11.31;99.66
48553;BME280;34335;51.566;6.994;2022-09-16T05:51:33;100411.72;;;11.28;99.86
48553;BME280;34335;51.566;6.994;2022-09-16T05:54:00;100416.91;;;11.31;99.36
48553;BME280;34335;51.566;6.994;2022-09-16T05:56:27;100415.16;;;11.30;98.71
48553;BME280;34335;51.566;6.994;2022-09-16T05:58:55;100425.53;;;11.36;99.03
48553;BME280;34335;51.566;6.994;2022-09-16T06:01:24;100424.63;;;11.41;98.93
48553;BME280;34335;51.566;6.994;2022-09-16T06:03:50;100424.69;;;11.33;100.00
48553;BME280;34335;51.566;6.994;2022-09-16T06:06:25;100422.97;;;11.30;99.97
48553;BME280;34335;51.566;6.994;2022-09-16T06:08:53;100427.25;;;11.39;99.87
48553;BME280;34335;51.566;6.994;2022-09-16T06:11:19;100418.59;;;11.34;100.00
48553;BME280;34335;51.566;6.994;2022-09-16T06:13:45;100425.53;;;11.35;100.00
48553;BME280;34335;51.566;6.994;2022-09-16T06:16:11;100433.31;;;11.40;100.00
48553;BME280;34335;51.566;6.994;2022-09-16T06:18:38;100429.84;;;11.41;100.00
48553;BME280;34335;51.566;6.994;2022-09-16T06:21:08;100422.84;;;11.46;100.00
48553;BME280;34335;51.566;6.994;2022-09-16T06:23:35;100420.25;;;11.47;100.00
48553;BME280;34335;51.566;6.994;2022-09-16T06:26:06;100424.56;;;11.48;100.00
48553;BME280;34335;51.566;6.994;2022-09-16T06:28:32;100427.97;;;11.55;100.00
48553;BME280;34335;51.566;6.994;2022-09-16T06:31:05;100434.84;;;11.64;99.97
48553;BME280;34335;51.566;6.994;2022-09-16T06:33:32;100435.72;;;11.61;99.68
48553;BME280;34335;51.566;6.994;2022-09-16T06:36:04;100432.25;;;11.61;100.00
48553;BME280;34335;51.566;6.994;2022-09-16T06:38:30;100433.13;;;11.61;100.00
48553;BME280;34335;51.566;6.994;2022-09-16T06:41:04;100433.94;;;11.68;99.63
48553;BME280;34335;51.566;6.994;2022-09-16T06:43:29;100426.84;;;11.81;99.53
48553;BME280;34335;51.566;6.994;2022-09-16T06:45:59;100432.00;;;11.84;98.75
48553;BME280;34335;51.566;6.994;2022-09-16T06:48:26;100435.41;;;11.91;99.79
48553;BME280;34335;51.566;6.994;2022-09-16T06:51:00;100428.47;;;11.93;98.58
48553;BME280;34335;51.566;6.994;2022-09-16T06:53:26;100432.78;;;11.97;98.52
48553;BME280;34335;51.566;6.994;2022-09-16T06:55:52;100434.44;;;12.06;98.29
48553;BME280;34335;51.566;6.994;2022-09-16T06:58:17;100435.19;;;12.15;98.01
48553;BME280;34335;51.566;6.994;2022-09-16T07:00:42;100436.09;;;12.11;98.68
48553;BME280;34335;51.566;6.994;2022-09-16T07:03:08;100429.97;;;12.14;97.90
48553;BME280;34335;51.566;6.994;2022-09-16T07:05:33;100430.81;;;12.18;97.90
48553;BME280;34335;51.566;6.994;2022-09-16T07:07:59;100436.13;;;12.10;98.46
48553;BME280;34335;51.566;6.994;2022-09-16T07:10:24;100433.50;;;12.11;97.76
48553;BME280;34335;51.566;6.994;2022-09-16T07:12:50;100438.78;;;12.05;97.85
48553;BME280;34335;51.566;6.994;2022-09-16T07:15:15;100432.75;;;12.00;98.27
48553;BME280;34335;51.566;6.994;2022-09-16T07:17:41;100445.72;;;12.06;98.02
48553;BME280;34335;51.566;6.994;2022-09-16T07:20:06;100439.41;;;12.26;96.97
48553;BME280;34335;51.566;6.994;2022-09-16T07:22:31;100449.72;;;12.34;96.31
48553;BME280;34335;51.566;6.994;2022-09-16T07:24:57;100442.63;;;12.48;96.22
48553;BME280;34335;51.566;6.994;2022-09-16T07:27:22;100452.34;;;12.34;96.20
48553;BME280;34335;51.566;6.994;2022-09-16T07:29:47;100450.63;;;12.32;95.80
48553;BME280;34335;51.566;6.994;2022-09-16T07:32:12;100452.16;;;12.47;95.05
48553;BME280;34335;51.566;6.994;2022-09-16T07:34:38;100448.44;;;12.67;94.81
48553;BME280;34335;51.566;6.994;2022-09-16T07:37:03;100444.03;;;12.71;93.72
48553;BME280;34335;51.566;6.994;2022-09-16T07:39:29;100448.09;;;12.92;92.31
48553;BME280;34335;51.566;6.994;2022-09-16T07:41:54;100447.41;;;12.77;91.87
48553;BME280;34335;51.566;6.994;2022-09-16T07:44:19;100452.66;;;12.74;92.02
48553;BME280;34335;51.566;6.994;2022-09-16T07:46:45;100451.78;;;12.75;92.17
48553;BME280;34335;51.566;6.994;2022-09-16T07:49:12;100462.09;;;12.86;92.34
48553;BME280;34335;51.566;6.994;2022-09-16T07:51:37;100460.25;;;12.94;91.73
48553;BME280;34335;51.566;6.994;2022-09-16T07:54:08;100457.59;;;12.96;91.77
48553;BME280;34335;51.566;6.994;2022-09-16T07:56:36;100461.81;;;13.03;91.07
48553;BME280;34335;51.566;6.994;2022-09-16T07:59:04;100463.41;;;13.14;91.57
48553;BME280;34335;51.566;6.994;2022-09-16T08:01:29;100464.97;;;13.27;90.37
48553;BME280;34335;51.566;6.994;2022-09-16T08:03:55;100458.81;;;13.30;89.90
48553;BME280;34335;51.566;6.994;2022-09-16T08:06:24;100465.66;;;13.42;89.46
48553;BME280;34335;51.566;6.994;2022-09-16T08:08:54;100464.66;;;13.49;88.59
48553;BME280;34335;51.566;6.994;2022-09-16T08:11:21;100456.44;;;13.69;87.80
48553;BME280;34335;51.566;6.994;2022-09-16T08:13:46;100449.25;;;13.82;87.21
48553;BME280;34335;51.566;6.994;2022-09-16T08:16:14;100450.09;;;13.84;86.43
48553;BME280;34335;51.566;6.994;2022-09-16T08:18:40;100448.78;;;14.07;87.43
48553;BME280;34335;51.566;6.994;2022-09-16T08:21:07;100453.91;;;14.13;85.29
48553;BME280;34335;51.566;6.994;2022-09-16T08:23:33;100458.47;;;14.01;86.18
48553;BME280;34335;51.566;6.994;2022-09-16T08:25:59;100466.44;;;13.95;86.29
48553;BME280;34335;51.566;6.994;2022-09-16T08:28:26;100458.38;;;14.08;84.75
48553;BME280;34335;51.566;6.994;2022-09-16T08:30:52;100457.56;;;14.02;84.33
48553;BME280;34335;51.566;6.994;2022-09-16T08:33:18;100465.00;;;14.24;83.76
48553;BME280;34335;51.566;6.994;2022-09-16T08:36:08;100469.88;;;14.43;83.27
48553;BME280;34335;51.566;6.994;2022-09-16T08:38:33;100475.56;;;14.62;80.86
48553;BME280;34335;51.566;6.994;2022-09-16T08:41:33;100470.38;;;14.60;82.03
48553;BME280;34335;51.566;6.994;2022-09-16T08:51:43;100478.63;;;14.83;77.89
48553;BME280;34335;51.566;6.994;2022-09-16T08:54:13;100474.47;;;14.74;80.23
48553;BME280;34335;51.566;6.994;2022-09-16T08:56:40;100474.44;;;14.75;80.05
48553;BME280;34335;51.566;6.994;2022-09-16T08:59:12;100481.44;;;14.75;80.87
48553;BME280;34335;51.566;6.994;2022-09-16T09:01:57;100485.28;;;14.57;79.06
48553;BME280;34335;51.566;6.994;2022-09-16T09:04:24;100485.91;;;14.70;79.42
48553;BME280;34335;51.566;6.994;2022-09-16T09:10:00;100483.94;;;14.37;78.84
48553;BME280;34335;51.566;6.994;2022-09-16T09:12:38;100481.63;;;14.65;81.15
48553;BME280;34335;51.566;6.994;2022-09-16T09:17:58;100478.16;;;14.62;79.12
48553;BME280;34335;51.566;6.994;2022-09-16T09:26:28;100478.59;;;15.23;76.68
48553;BME280;34335;51.566;6.994;2022-09-16T09:29:19;100481.78;;;15.36;76.64
48553;BME280;34335;51.566;6.994;2022-09-16T09:32:15;100482.75;;;15.32;76.04
48553;BME280;34335;51.566;6.994;2022-09-16T09:43:02;100466.38;;;15.58;73.22
48553;BME280;34335;51.566;6.994;2022-09-16T09:45:35;100468.28;;;15.16;72.32
48553;BME280;34335;51.566;6.994;2022-09-16T09:48:19;100469.25;;;15.13;72.50
48553;BME280;34335;51.566;6.994;2022-09-16T09:50:48;100463.56;;;15.32;74.50
48553;BME280;34335;51.566;6.994;2022-09-16T09:53:22;100464.22;;;15.02;71.61
48553;BME280;34335;51.566;6.994;2022-09-16T09:55:53;100456.41;;;15.38;72.47
48553;BME280;34335;51.566;6.994;2022-09-16T09:58:23;100463.63;;;15.29;72.09
48553;BME280;34335;51.566;6.994;2022-09-16T10:00:53;100469.53;;;15.37;73.71
48553;BME280;34335;51.566;6.994;2022-09-16T10:03:23;100459.56;;;15.15;72.59
48553;BME280;34335;51.566;6.994;2022-09-16T10:05:49;100460.94;;;14.94;74.70
48553;BME280;34335;51.566;6.994;2022-09-16T10:10:50;100465.22;;;15.34;74.88
48553;BME280;34335;51.566;6.994;2022-09-16T10:13:17;100464.00;;;15.82;75.38
48553;BME280;34335;51.566;6.994;2022-09-16T10:15:44;100468.81;;;15.66;71.82
48553;BME280;34335;51.566;6.994;2022-09-16T10:18:12;100467.28;;;15.57;73.27
48553;BME280;34335;51.566;6.994;2022-09-16T10:20:41;100467.28;;;15.57;71.25
48553;BME280;34335;51.566;6.994;2022-09-16T10:25:35;100467.81;;;15.36;71.34
48553;BME280;34335;51.566;6.994;2022-09-16T10:28:03;100462.44;;;15.42;72.63
48553;BME280;34335;51.566;6.994;2022-09-16T10:30:32;100464.03;;;15.81;71.20
48553;BME280;34335;51.566;6.994;2022-09-16T10:33:11;100455.69;;;16.32;70.04
48553;BME280;34335;51.566;6.994;2022-09-16T10:35:39;100474.78;;;16.06;68.74
48553;BME280;34335;51.566;6.994;2022-09-16T10:38:18;100475.53;;;15.42;69.78
48553;BME280;34335;51.566;6.994;2022-09-16T10:40:56;100470.19;;;15.45;71.15
48553;BME280;34335;51.566;6.994;2022-09-16T10:43:28;100460.91;;;15.68;72.52
48553;BME280;34335;51.566;6.994;2022-09-16T10:45:54;100465.69;;;15.86;71.84
48553;BME280;34335;51.566;6.994;2022-09-16T10:48:27;100467.88;;;16.02;69.93
48553;BME280;34335;51.566;6.994;2022-09-16T10:50:59;100451.84;;;16.44;65.83
48553;BME280;34335;51.566;6.994;2022-09-16T10:53:31;100442.31;;;16.40;65.12
48553;BME280;34335;51.566;6.994;2022-09-16T10:56:03;100438.69;;;16.74;66.28
48553;BME280;34335;51.566;6.994;2022-09-16T10:58:29;100434.22;;;17.06;67.57
48553;BME280;34335;51.566;6.994;2022-09-16T11:06:23;100434.22;;;17.33;64.57
48553;BME280;34335;51.566;6.994;2022-09-16T11:09:08;100444.53;;;17.12;63.80
48553;BME280;34335;51.566;6.994;2022-09-16T11:14:30;100430.69;;;17.85;62.18
48553;BME280;34335;51.566;6.994;2022-09-16T11:22:30;100436.44;;;17.96;60.89
48553;BME280;34335;51.566;6.994;2022-09-16T11:30:24;100428.66;;;17.42;61.41
48553;BME280;34335;51.566;6.994;2022-09-16T11:38:17;100440.78;;;16.63;60.79
48553;BME280;34335;51.566;6.994;2022-09-16T11:41:00;100451.97;;;16.98;63.16
48553;BME280;34335;51.566;6.994;2022-09-16T11:43:53;100444.75;;;16.16;68.19
48553;BME280;34335;51.566;6.994;2022-09-16T11:52:46;100467.81;;;16.05;72.92
48553;BME280;34335;51.566;6.994;2022-09-16T11:58:30;100467.50;;;15.83;70.81
48553;BME280;34335;51.566;6.994;2022-09-16T12:01:02;100469.22;;;15.49;71.79
48553;BME280;34335;51.566;6.994;2022-09-16T12:03:47;100461.38;;;15.84;72.92
48553;BME280;34335;51.566;6.994;2022-09-16T12:06:18;100458.78;;;16.15;72.67
48553;BME280;34335;51.566;6.994;2022-09-16T12:08:52;100465.94;;;16.70;69.22
48553;BME280;34335;51.566;6.994;2022-09-16T12:11:32;100477.69;;;17.17;70.84
48553;BME280;34335;51.566;6.994;2022-09-16T12:14:07;100492.13;;;17.57;69.05
48553;BME280;34335;51.566;6.994;2022-09-16T12:19:27;100490.47;;;16.69;66.44
48553;BME280;34335;51.566;6.994;2022-09-16T12:22:03;100484.31;;;16.40;62.91
48553;BME280;34335;51.566;6.994;2022-09-16T12:24:43;100500.88;;;14.61;70.06
48553;BME280;34335;51.566;6.994;2022-09-16T12:30:15;100488.78;;;15.70;72.76
48553;BME280;34335;51.566;6.994;2022-09-16T12:32:46;100496.44;;;14.65;75.69
48553;BME280;34335;51.566;6.994;2022-09-16T12:35:17;100483.88;;;14.83;78.86
48553;BME280;34335;51.566;6.994;2022-09-16T12:37:48;100482.53;;;15.76;76.45
48553;BME280;34335;51.566;6.994;2022-09-16T12:40:21;100482.50;;;16.11;75.00
48553;BME280;34335;51.566;6.994;2022-09-16T12:45:44;100474.34;;;16.81;72.39
48553;BME280;34335;51.566;6.994;2022-09-16T12:51:45;100475.00;;;16.60;72.59
48553;BME280;34335;51.566;6.994;2022-09-16T13:02:06;100505.78;;;14.34;82.40
48553;BME280;34335;51.566;6.994;2022-09-16T13:04:42;100497.25;;;14.69;81.10
48553;BME280;34335;51.566;6.994;2022-09-16T13:07:35;100490.09;;;15.18;80.47
48553;BME280;34335;51.566;6.994;2022-09-16T13:10:17;100478.66;;;15.20;78.67
48553;BME280;34335;51.566;6.994;2022-09-16T13:12:52;100467.25;;;15.23;79.82
48553;BME280;34335;51.566;6.994;2022-09-16T13:15:33;100461.75;;;15.68;77.94
48553;BME280;34335;51.566;6.994;2022-09-16T13:20:47;100479.72;;;14.74;81.58
48553;BME280;34335;51.566;6.994;2022-09-16T13:23:20;100488.88;;;14.07;86.08
48553;BME280;34335;51.566;6.994;2022-09-16T13:25:56;100502.28;;;13.32;87.02
48553;BME280;34335;51.566;6.994;2022-09-16T13:28:37;100499.38;;;13.54;86.27
48553;BME280;34335;51.566;6.994;2022-09-16T13:33:47;100480.38;;;14.40;84.22
48553;BME280;34335;51.566;6.994;2022-09-16T13:38:50;100470.19;;;14.71;82.33
48553;BME280;34335;51.566;6.994;2022-09-16T13:41:40;100462.94;;;14.40;82.62
48553;BME280;34335;51.566;6.994;2022-09-16T13:49:33;100459.78;;;14.65;81.77
48553;BME280;34335;51.566;6.994;2022-09-16T13:52:11;100471.97;;;14.69;82.70
48553;BME280;34335;51.566;6.994;2022-09-16T13:54:42;100469.72;;;14.49;85.78
48553;BME280;34335;51.566;6.994;2022-09-16T14:05:15;100460.84;;;15.35;86.95
48553;BME280;34335;51.566;6.994;2022-09-16T14:07:59;100453.97;;;15.31;85.59
48553;BME280;34335;51.566;6.994;2022-09-16T14:10:44;100455.47;;;15.76;87.41
48553;BME280;34335;51.566;6.994;2022-09-16T14:13:16;100450.97;;;16.44;86.97
48553;BME280;34335;51.566;6.994;2022-09-16T14:15:54;100446.09;;;16.00;85.29
48553;BME280;34335;51.566;6.994;2022-09-16T14:18:29;100457.91;;;16.46;83.04
48553;BME280;34335;51.566;6.994;2022-09-16T14:21:02;100452.50;;;17.09;84.03
48553;BME280;34335;51.566;6.994;2022-09-16T14:23:30;100453.84;;;17.23;81.75
48553;BME280;34335;51.566;6.994;2022-09-16T14:25:56;100451.56;;;17.12;81.39
48553;BME280;34335;51.566;6.994;2022-09-16T14:28:24;100451.75;;;17.06;78.75
48553;BME280;34335;51.566;6.994;2022-09-16T14:30:56;100447.53;;;17.00;77.74
48553;BME280;34335;51.566;6.994;2022-09-16T14:33:36;100444.72;;;16.48;80.06
48553;BME280;34335;51.566;6.994;2022-09-16T14:36:13;100444.50;;;16.26;81.87
48553;BME280;34335;51.566;6.994;2022-09-16T14:41:43;100445.28;;;16.88;82.33
48553;BME280;34335;51.566;6.994;2022-09-16T14:49:16;100435.94;;;17.34;76.61
48553;BME280;34335;51.566;6.994;2022-09-16T14:51:45;100432.88;;;17.47;78.39
48553;BME280;34335;51.566;6.994;2022-09-16T14:54:22;100441.22;;;17.33;72.48
48553;BME280;34335;51.566;6.994;2022-09-16T14:56:59;100430.25;;;17.47;76.50
48553;BME280;34335;51.566;6.994;2022-09-16T14:59:33;100444.75;;;17.05;76.85
48553;BME280;34335;51.566;6.994;2022-09-16T15:02:07;100441.25;;;16.76;78.31
48553;BME280;34335;51.566;6.994;2022-09-16T15:04:39;100446.94;;;16.90;77.72
48553;BME280;34335;51.566;6.994;2022-09-16T15:07:11;100439.72;;;17.25;78.33
48553;BME280;34335;51.566;6.994;2022-09-16T15:09:44;100439.94;;;17.19;77.02
48553;BME280;34335;51.566;6.994;2022-09-16T15:12:22;100446.44;;;17.07;76.05
48553;BME280;34335;51.566;6.994;2022-09-16T15:14:49;100444.13;;;16.68;76.18
48553;BME280;34335;51.566;6.994;2022-09-16T15:17:18;100448.72;;;16.61;76.73
48553;BME280;34335;51.566;6.994;2022-09-16T15:19:50;100450.19;;;16.70;75.88
48553;BME280;34335;51.566;6.994;2022-09-16T15:22:18;100433.50;;;16.73;79.29
48553;BME280;34335;51.566;6.994;2022-09-16T15:24:46;100443.38;;;17.21;77.41
48553;BME280;34335;51.566;6.994;2022-09-16T15:27:23;100426.47;;;16.73;80.11
48553;BME280;34335;51.566;6.994;2022-09-16T15:29:54;100426.03;;;17.42;76.56
48553;BME280;34335;51.566;6.994;2022-09-16T15:32:21;100420.53;;;17.50;77.85